sensor_id;sensor_type;location;lat;lon;timestamp;P1;durP1;ratioP1;P2;durP2;ratioP2
73084;SDS011;62974;49.460;10.892;2023-07-24T00:00:40;6.30;;;2.85;;
73084;SDS011;62974;49.460;10.892;2023-07-24T00:03:08;7.35;;;2.33;;
73084;SDS011;62974;49.460;10.892;2023-07-24T00:05:35;6.57;;;2.88;;
73084;SDS011;62974;49.460;10.892;2023-07-24T00:08:03;6.90;;;3.40;;
73084;SDS011;62974;49.460;10.892;2023-07-24T00:10:31;6.50;;;2.63;;
73084;SDS011;62974;49.460;10.892;2023-07-24T00:13:00;8.60;;;2.97;;
73084;SDS011;62974;49.460;10.892;2023-07-24T00:15:29;5.47;;;2.47;;
73084;SDS011;62974;49.460;10.892;2023-07-24T00:17:56;6.47;;;2.70;;
73084;SDS011;62974;49.460;10.892;2023-07-24T00:20:24;7.95;;;2.88;;
73084;SDS011;62974;49.460;10.892;2023-07-24T00:22:54;6.18;;;3.35;;
73084;SDS011;62974;49.460;10.892;2023-07-24T00:25:22;6.57;;;2.78;;
73084;SDS011;62974;49.460;10.892;2023-07-24T00:27:50;5.90;;;2.90;;
73084;SDS011;62974;49.460;10.892;2023-07-24T00:30:19;6.68;;;2.80;;
73084;SDS011;62974;49.460;10.892;2023-07-24T00:32:46;5.68;;;2.50;;
73084;SDS011;62974;49.460;10.892;2023-07-24T00:35:14;8.15;;;3.17;;
73084;SDS011;62974;49.460;10.892;2023-07-24T00:37:41;7.20;;;2.90;;
73084;SDS011;62974;49.460;10.892;2023-07-24T00:40:09;5.45;;;3.20;;
73084;SDS011;62974;49.460;10.892;2023-07-24T00:42:40;6.80;;;2.92;;
73084;SDS011;62974;49.460;10.892;2023-07-24T00:45:15;7.05;;;3.17;;
73084;SDS011;62974;49.460;10.892;2023-07-24T00:50:12;8.98;;;3.08;;
73084;SDS011;62974;49.460;10.892;2023-07-24T00:52:40;7.47;;;3.22;;
73084;SDS011;62974;49.460;10.892;2023-07-24T00:55:09;6.20;;;2.58;;
73084;SDS011;62974;49.460;10.892;2023-07-24T00:57:37;7.57;;;3.17;;
73084;SDS011;62974;49.460;10.892;2023-07-24T01:00:05;7.07;;;2.97;;
73084;SDS011;62974;49.460;10.892;2023-07-24T01:02:34;5.30;;;2.83;;
73084;SDS011;62974;49.460;10.892;2023-07-24T01:05:03;7.50;;;2.85;;
73084;SDS011;62974;49.460;10.892;2023-07-24T01:07:32;7.35;;;3.15;;
73084;SDS011;62974;49.460;10.892;2023-07-24T01:09:59;5.88;;;2.92;;
73084;SDS011;62974;49.460;10.892;2023-07-24T01:12:29;10.23;;;3.20;;
73084;SDS011;62974;49.460;10.892;2023-07-24T01:15:06;9.70;;;3.30;;
73084;SDS011;62974;49.460;10.892;2023-07-24T01:17:39;5.75;;;2.45;;
73084;SDS011;62974;49.460;10.892;2023-07-24T01:22:46;5.95;;;2.75;;
73084;SDS011;62974;49.460;10.892;2023-07-24T01:25:23;5.45;;;2.47;;
73084;SDS011;62974;49.460;10.892;2023-07-24T01:27:58;6.32;;;2.60;;
73084;SDS011;62974;49.460;10.892;2023-07-24T01:30:26;7.65;;;3.42;;
73084;SDS011;62974;49.460;10.892;2023-07-24T01:32:53;7.55;;;3.15;;
73084;SDS011;62974;49.460;10.892;2023-07-24T01:35:21;6.15;;;2.83;;
73084;SDS011;62974;49.460;10.892;2023-07-24T01:37:49;6.82;;;3.35;;
73084;SDS011;62974;49.460;10.892;2023-07-24T01:40:17;6.97;;;2.90;;
73084;SDS011;62974;49.460;10.892;2023-07-24T01:42:46;7.03;;;2.90;;
73084;SDS011;62974;49.460;10.892;2023-07-24T01:45:15;7.22;;;3.40;;
73084;SDS011;62974;49.460;10.892;2023-07-24T01:47:42;8.65;;;3.65;;
73084;SDS011;62974;49.460;10.892;2023-07-24T01:50:10;7.47;;;3.03;;
73084;SDS011;62974;49.460;10.892;2023-07-24T01:52:38;8.70;;;3.10;;
73084;SDS011;62974;49.460;10.892;2023-07-24T01:55:06;8.43;;;3.72;;
73084;SDS011;62974;49.460;10.892;2023-07-24T01:57:35;6.63;;;3.13;;
73084;SDS011;62974;49.460;10.892;2023-07-24T02:00:03;5.57;;;3.03;;
73084;SDS011;62974;49.460;10.892;2023-07-24T02:02:33;6.50;;;3.08;;
73084;SDS011;62974;49.460;10.892;2023-07-24T02:05:01;5.45;;;3.00;;
73084;SDS011;62974;49.460;10.892;2023-07-24T02:07:28;7.78;;;3.70;;
73084;SDS011;62974;49.460;10.892;2023-07-24T02:09:56;7.80;;;3.33;;
73084;SDS011;62974;49.460;10.892;2023-07-24T02:12:24;7.75;;;3.30;;
73084;SDS011;62974;49.460;10.892;2023-07-24T02:14:51;7.75;;;3.15;;
73084;SDS011;62974;49.460;10.892;2023-07-24T02:17:20;7.38;;;3.00;;
73084;SDS011;62974;49.460;10.892;2023-07-24T02:19:50;7.18;;;3.13;;
73084;SDS011;62974;49.460;10.892;2023-07-24T02:22:17;6.78;;;3.00;;
73084;SDS011;62974;49.460;10.892;2023-07-24T02:24:45;7.55;;;3.10;;
73084;SDS011;62974;49.460;10.892;2023-07-24T02:27:13;6.90;;;2.92;;
73084;SDS011;62974;49.460;10.892;2023-07-24T02:29:51;7.07;;;3.28;;
73084;SDS011;62974;49.460;10.892;2023-07-24T02:32:19;7.55;;;3.17;;
73084;SDS011;62974;49.460;10.892;2023-07-24T02:34:50;7.35;;;3.58;;
73084;SDS011;62974;49.460;10.892;2023-07-24T02:37:18;9.05;;;3.88;;
73084;SDS011;62974;49.460;10.892;2023-07-24T02:39:46;6.68;;;3.50;;
73084;SDS011;62974;49.460;10.892;2023-07-24T02:42:14;7.93;;;3.88;;
73084;SDS011;62974;49.460;10.892;2023-07-24T02:44:41;7.13;;;3.40;;
73084;SDS011;62974;49.460;10.892;2023-07-24T02:47:09;7.50;;;3.28;;
73084;SDS011;62974;49.460;10.892;2023-07-24T02:49:39;7.70;;;3.55;;
73084;SDS011;62974;49.460;10.892;2023-07-24T02:52:08;10.15;;;3.30;;
73084;SDS011;62974;49.460;10.892;2023-07-24T02:54:35;8.68;;;3.30;;
73084;SDS011;62974;49.460;10.892;2023-07-24T02:57:03;9.27;;;3.67;;
73084;SDS011;62974;49.460;10.892;2023-07-24T02:59:31;6.75;;;3.38;;
73084;SDS011;62974;49.460;10.892;2023-07-24T03:02:00;8.48;;;3.50;;
73084;SDS011;62974;49.460;10.892;2023-07-24T03:04:28;7.63;;;3.33;;
73084;SDS011;62974;49.460;10.892;2023-07-24T03:06:57;8.27;;;3.28;;
73084;SDS011;62974;49.460;10.892;2023-07-24T03:09:26;8.13;;;3.13;;
73084;SDS011;62974;49.460;10.892;2023-07-24T03:11:53;7.43;;;3.97;;
73084;SDS011;62974;49.460;10.892;2023-07-24T03:14:21;8.35;;;4.10;;
73084;SDS011;62974;49.460;10.892;2023-07-24T03:16:48;9.75;;;3.92;;
73084;SDS011;62974;49.460;10.892;2023-07-24T03:19:16;6.53;;;3.47;;
73084;SDS011;62974;49.460;10.892;2023-07-24T03:21:46;9.48;;;3.70;;
73084;SDS011;62974;49.460;10.892;2023-07-24T03:24:13;7.93;;;3.65;;
73084;SDS011;62974;49.460;10.892;2023-07-24T03:26:42;7.80;;;3.60;;
73084;SDS011;62974;49.460;10.892;2023-07-24T03:29:09;7.45;;;3.38;;
73084;SDS011;62974;49.460;10.892;2023-07-24T03:31:36;7.75;;;3.55;;
73084;SDS011;62974;49.460;10.892;2023-07-24T03:34:04;8.52;;;4.07;;
73084;SDS011;62974;49.460;10.892;2023-07-24T03:36:31;8.55;;;3.38;;
73084;SDS011;62974;49.460;10.892;2023-07-24T03:39:00;7.85;;;3.30;;
73084;SDS011;62974;49.460;10.892;2023-07-24T03:41:28;6.30;;;3.38;;
73084;SDS011;62974;49.460;10.892;2023-07-24T03:43:57;8.70;;;3.42;;
73084;SDS011;62974;49.460;10.892;2023-07-24T03:46:25;7.80;;;3.65;;
73084;SDS011;62974;49.460;10.892;2023-07-24T03:48:53;6.90;;;3.47;;
73084;SDS011;62974;49.460;10.892;2023-07-24T03:51:21;8.15;;;3.22;;
73084;SDS011;62974;49.460;10.892;2023-07-24T03:53:48;8.07;;;3.45;;
73084;SDS011;62974;49.460;10.892;2023-07-24T03:56:19;7.47;;;3.45;;
73084;SDS011;62974;49.460;10.892;2023-07-24T03:58:47;6.22;;;3.30;;
73084;SDS011;62974;49.460;10.892;2023-07-24T04:01:15;7.22;;;3.83;;
73084;SDS011;62974;49.460;10.892;2023-07-24T04:03:43;7.55;;;3.15;;
73084;SDS011;62974;49.460;10.892;2023-07-24T04:06:11;8.27;;;3.65;;
73084;SDS011;62974;49.460;10.892;2023-07-24T04:08:38;9.35;;;3.40;;
73084;SDS011;62974;49.460;10.892;2023-07-24T04:11:06;7.72;;;3.67;;
73084;SDS011;62974;49.460;10.892;2023-07-24T04:13:34;7.20;;;3.45;;
73084;SDS011;62974;49.460;10.892;2023-07-24T04:16:02;7.90;;;3.92;;
73084;SDS011;62974;49.460;10.892;2023-07-24T04:18:31;7.68;;;3.38;;
73084;SDS011;62974;49.460;10.892;2023-07-24T04:20:58;7.32;;;3.92;;
73084;SDS011;62974;49.460;10.892;2023-07-24T04:23:26;7.30;;;3.80;;
73084;SDS011;62974;49.460;10.892;2023-07-24T04:25:53;8.13;;;3.47;;
73084;SDS011;62974;49.460;10.892;2023-07-24T04:28:21;8.00;;;4.25;;
73084;SDS011;62974;49.460;10.892;2023-07-24T04:30:49;7.53;;;3.17;;
73084;SDS011;62974;49.460;10.892;2023-07-24T04:33:17;9.20;;;4.03;;
73084;SDS011;62974;49.460;10.892;2023-07-24T04:35:48;8.20;;;4.22;;
73084;SDS011;62974;49.460;10.892;2023-07-24T04:38:16;7.95;;;3.85;;
73084;SDS011;62974;49.460;10.892;2023-07-24T04:40:43;11.52;;;4.57;;
73084;SDS011;62974;49.460;10.892;2023-07-24T04:43:11;6.68;;;3.47;;
73084;SDS011;62974;49.460;10.892;2023-07-24T04:45:38;8.77;;;3.85;;
73084;SDS011;62974;49.460;10.892;2023-07-24T04:48:06;7.10;;;3.72;;
73084;SDS011;62974;49.460;10.892;2023-07-24T04:50:34;9.95;;;4.38;;
73084;SDS011;62974;49.460;10.892;2023-07-24T04:53:03;9.75;;;4.20;;
73084;SDS011;62974;49.460;10.892;2023-07-24T04:55:30;9.55;;;4.38;;
73084;SDS011;62974;49.460;10.892;2023-07-24T04:57:58;9.43;;;4.20;;
73084;SDS011;62974;49.460;10.892;2023-07-24T05:00:25;8.05;;;4.25;;
73084;SDS011;62974;49.460;10.892;2023-07-24T05:02:53;10.88;;;5.35;;
73084;SDS011;62974;49.460;10.892;2023-07-24T05:05:21;10.13;;;4.40;;
73084;SDS011;62974;49.460;10.892;2023-07-24T05:07:50;9.63;;;4.40;;
73084;SDS011;62974;49.460;10.892;2023-07-24T05:10:19;9.70;;;4.43;;
73084;SDS011;62974;49.460;10.892;2023-07-24T05:12:46;9.63;;;4.70;;
73084;SDS011;62974;49.460;10.892;2023-07-24T05:15:14;8.77;;;4.70;;
73084;SDS011;62974;49.460;10.892;2023-07-24T05:17:43;10.85;;;4.80;;
73084;SDS011;62974;49.460;10.892;2023-07-24T05:20:11;8.52;;;4.15;;
73084;SDS011;62974;49.460;10.892;2023-07-24T05:25:06;11.48;;;5.20;;
73084;SDS011;62974;49.460;10.892;2023-07-24T05:27:36;8.43;;;4.72;;
73084;SDS011;62974;49.460;10.892;2023-07-24T05:30:04;8.60;;;4.57;;
73084;SDS011;62974;49.460;10.892;2023-07-24T05:32:34;9.40;;;4.20;;
73084;SDS011;62974;49.460;10.892;2023-07-24T05:35:02;9.93;;;4.65;;
73084;SDS011;62974;49.460;10.892;2023-07-24T05:39:57;9.95;;;4.35;;
73084;SDS011;62974;49.460;10.892;2023-07-24T05:42:27;8.80;;;4.13;;
73084;SDS011;62974;49.460;10.892;2023-07-24T05:44:56;9.43;;;4.50;;
73084;SDS011;62974;49.460;10.892;2023-07-24T05:47:24;11.60;;;5.68;;
73084;SDS011;62974;49.460;10.892;2023-07-24T05:49:52;8.05;;;3.55;;
73084;SDS011;62974;49.460;10.892;2023-07-24T05:52:20;9.75;;;4.57;;
73084;SDS011;62974;49.460;10.892;2023-07-24T05:54:47;9.93;;;4.68;;
73084;SDS011;62974;49.460;10.892;2023-07-24T05:57:15;10.70;;;5.03;;
73084;SDS011;62974;49.460;10.892;2023-07-24T05:59:43;11.55;;;5.00;;
73084;SDS011;62974;49.460;10.892;2023-07-24T06:02:12;9.13;;;4.60;;
73084;SDS011;62974;49.460;10.892;2023-07-24T06:04:39;12.38;;;4.63;;
73084;SDS011;62974;49.460;10.892;2023-07-24T06:07:07;8.32;;;3.90;;
73084;SDS011;62974;49.460;10.892;2023-07-24T06:09:34;9.25;;;3.67;;
73084;SDS011;62974;49.460;10.892;2023-07-24T06:12:02;9.48;;;4.03;;
73084;SDS011;62974;49.460;10.892;2023-07-24T06:14:30;9.18;;;4.45;;
73084;SDS011;62974;49.460;10.892;2023-07-24T06:16:58;10.50;;;4.53;;
73084;SDS011;62974;49.460;10.892;2023-07-24T06:19:26;9.20;;;4.28;;
73084;SDS011;62974;49.460;10.892;2023-07-24T06:21:54;11.30;;;5.07;;
73084;SDS011;62974;49.460;10.892;2023-07-24T06:24:22;11.65;;;4.10;;
73084;SDS011;62974;49.460;10.892;2023-07-24T06:26:50;9.38;;;4.40;;
73084;SDS011;62974;49.460;10.892;2023-07-24T06:29:17;8.98;;;4.60;;
73084;SDS011;62974;49.460;10.892;2023-07-24T06:31:45;9.30;;;4.75;;
73084;SDS011;62974;49.460;10.892;2023-07-24T06:34:13;10.48;;;5.20;;
73084;SDS011;62974;49.460;10.892;2023-07-24T06:36:42;12.55;;;4.80;;
73084;SDS011;62974;49.460;10.892;2023-07-24T06:39:09;8.02;;;4.15;;
73084;SDS011;62974;49.460;10.892;2023-07-24T06:41:37;9.48;;;4.47;;
73084;SDS011;62974;49.460;10.892;2023-07-24T06:44:05;11.35;;;4.88;;
73084;SDS011;62974;49.460;10.892;2023-07-24T06:46:32;9.05;;;3.53;;
73084;SDS011;62974;49.460;10.892;2023-07-24T06:49:00;10.73;;;4.63;;
73084;SDS011;62974;49.460;10.892;2023-07-24T06:51:27;12.43;;;4.50;;
73084;SDS011;62974;49.460;10.892;2023-07-24T06:53:58;8.85;;;3.88;;
73084;SDS011;62974;49.460;10.892;2023-07-24T06:56:26;8.00;;;4.28;;
73084;SDS011;62974;49.460;10.892;2023-07-24T06:58:54;10.73;;;4.90;;
73084;SDS011;62974;49.460;10.892;2023-07-24T07:01:24;10.90;;;4.45;;
73084;SDS011;62974;49.460;10.892;2023-07-24T07:03:53;9.88;;;3.97;;
73084;SDS011;62974;49.460;10.892;2023-07-24T07:06:21;9.77;;;5.00;;
73084;SDS011;62974;49.460;10.892;2023-07-24T07:08:51;11.30;;;4.38;;
73084;SDS011;62974;49.460;10.892;2023-07-24T07:11:20;8.45;;;4.20;;
73084;SDS011;62974;49.460;10.892;2023-07-24T07:13:47;10.38;;;4.47;;
73084;SDS011;62974;49.460;10.892;2023-07-24T07:16:15;10.95;;;4.57;;
73084;SDS011;62974;49.460;10.892;2023-07-24T07:18:45;11.63;;;4.82;;
73084;SDS011;62974;49.460;10.892;2023-07-24T07:21:12;8.40;;;4.50;;
73084;SDS011;62974;49.460;10.892;2023-07-24T07:23:40;9.95;;;4.53;;
73084;SDS011;62974;49.460;10.892;2023-07-24T07:26:12;10.20;;;4.40;;
73084;SDS011;62974;49.460;10.892;2023-07-24T07:28:41;8.90;;;4.15;;
73084;SDS011;62974;49.460;10.892;2023-07-24T07:31:10;9.05;;;4.15;;
73084;SDS011;62974;49.460;10.892;2023-07-24T07:33:39;11.45;;;4.55;;
73084;SDS011;62974;49.460;10.892;2023-07-24T07:36:07;11.25;;;4.68;;
73084;SDS011;62974;49.460;10.892;2023-07-24T07:38:38;10.98;;;4.60;;
73084;SDS011;62974;49.460;10.892;2023-07-24T07:41:06;11.15;;;4.93;;
73084;SDS011;62974;49.460;10.892;2023-07-24T07:43:34;9.93;;;4.53;;
73084;SDS011;62974;49.460;10.892;2023-07-24T07:48:34;10.02;;;4.88;;
73084;SDS011;62974;49.460;10.892;2023-07-24T07:51:01;11.23;;;4.82;;
73084;SDS011;62974;49.460;10.892;2023-07-24T07:53:29;8.27;;;3.85;;
73084;SDS011;62974;49.460;10.892;2023-07-24T07:55:58;10.88;;;4.75;;
73084;SDS011;62974;49.460;10.892;2023-07-24T07:58:26;9.65;;;4.05;;
73084;SDS011;62974;49.460;10.892;2023-07-24T08:00:54;9.55;;;3.67;;
73084;SDS011;62974;49.460;10.892;2023-07-24T08:03:23;7.88;;;4.38;;
73084;SDS011;62974;49.460;10.892;2023-07-24T08:05:50;11.68;;;4.47;;
73084;SDS011;62974;49.460;10.892;2023-07-24T08:08:18;10.02;;;4.43;;
73084;SDS011;62974;49.460;10.892;2023-07-24T08:10:46;10.30;;;4.40;;
73084;SDS011;62974;49.460;10.892;2023-07-24T08:13:13;9.82;;;4.93;;
73084;SDS011;62974;49.460;10.892;2023-07-24T08:15:41;11.43;;;4.13;;
73084;SDS011;62974;49.460;10.892;2023-07-24T08:18:08;9.80;;;4.43;;
73084;SDS011;62974;49.460;10.892;2023-07-24T08:20:40;11.90;;;4.72;;
73084;SDS011;62974;49.460;10.892;2023-07-24T08:23:07;9.07;;;4.25;;
73084;SDS011;62974;49.460;10.892;2023-07-24T08:25:35;9.70;;;4.30;;
73084;SDS011;62974;49.460;10.892;2023-07-24T08:28:02;9.98;;;4.57;;
73084;SDS011;62974;49.460;10.892;2023-07-24T08:30:32;9.88;;;4.43;;
73084;SDS011;62974;49.460;10.892;2023-07-24T08:33:01;9.85;;;4.13;;
73084;SDS011;62974;49.460;10.892;2023-07-24T08:35:31;8.75;;;4.07;;
73084;SDS011;62974;49.460;10.892;2023-07-24T08:38:00;8.73;;;4.00;;
73084;SDS011;62974;49.460;10.892;2023-07-24T08:40:28;9.50;;;4.38;;
73084;SDS011;62974;49.460;10.892;2023-07-24T08:42:55;7.55;;;3.63;;
73084;SDS011;62974;49.460;10.892;2023-07-24T08:45:24;12.30;;;4.88;;
73084;SDS011;62974;49.460;10.892;2023-07-24T08:47:52;11.02;;;4.53;;
73084;SDS011;62974;49.460;10.892;2023-07-24T08:50:20;10.18;;;4.40;;
73084;SDS011;62974;49.460;10.892;2023-07-24T08:52:50;7.40;;;3.33;;
73084;SDS011;62974;49.460;10.892;2023-07-24T08:55:20;8.82;;;4.28;;
73084;SDS011;62974;49.460;10.892;2023-07-24T08:57:50;8.82;;;4.10;;
73084;SDS011;62974;49.460;10.892;2023-07-24T09:00:18;9.60;;;4.25;;
73084;SDS011;62974;49.460;10.892;2023-07-24T09:02:46;8.20;;;4.10;;
73084;SDS011;62974;49.460;10.892;2023-07-24T09:05:13;10.00;;;4.45;;
73084;SDS011;62974;49.460;10.892;2023-07-24T09:07:43;8.93;;;4.10;;
73084;SDS011;62974;49.460;10.892;2023-07-24T09:10:12;7.10;;;3.55;;
73084;SDS011;62974;49.460;10.892;2023-07-24T09:12:42;10.93;;;3.83;;
73084;SDS011;62974;49.460;10.892;2023-07-24T09:15:10;9.70;;;4.82;;
73084;SDS011;62974;49.460;10.892;2023-07-24T09:17:46;8.90;;;4.50;;
73084;SDS011;62974;49.460;10.892;2023-07-24T09:20:15;9.52;;;4.38;;
73084;SDS011;62974;49.460;10.892;2023-07-24T09:22:47;10.43;;;4.30;;
73084;SDS011;62974;49.460;10.892;2023-07-24T09:25:36;8.82;;;3.42;;
73084;SDS011;62974;49.460;10.892;2023-07-24T09:28:11;10.30;;;4.47;;
73084;SDS011;62974;49.460;10.892;2023-07-24T09:30:40;10.02;;;4.40;;
73084;SDS011;62974;49.460;10.892;2023-07-24T09:33:08;11.23;;;4.80;;
73084;SDS011;62974;49.460;10.892;2023-07-24T09:35:35;10.60;;;4.28;;
73084;SDS011;62974;49.460;10.892;2023-07-24T09:38:04;10.88;;;4.88;;
73084;SDS011;62974;49.460;10.892;2023-07-24T09:40:39;10.57;;;4.50;;
73084;SDS011;62974;49.460;10.892;2023-07-24T09:43:16;8.07;;;4.43;;
73084;SDS011;62974;49.460;10.892;2023-07-24T09:46:03;10.25;;;4.65;;
73084;SDS011;62974;49.460;10.892;2023-07-24T09:48:32;8.65;;;3.65;;
73084;SDS011;62974;49.460;10.892;2023-07-24T09:51:04;9.23;;;4.78;;
73084;SDS011;62974;49.460;10.892;2023-07-24T09:53:32;12.93;;;4.85;;
73084;SDS011;62974;49.460;10.892;2023-07-24T09:56:01;12.18;;;4.80;;
73084;SDS011;62974;49.460;10.892;2023-07-24T09:58:33;10.02;;;4.47;;
73084;SDS011;62974;49.460;10.892;2023-07-24T10:01:02;8.27;;;4.15;;
73084;SDS011;62974;49.460;10.892;2023-07-24T10:03:32;10.30;;;4.45;;
73084;SDS011;62974;49.460;10.892;2023-07-24T10:06:01;8.18;;;4.30;;
73084;SDS011;62974;49.460;10.892;2023-07-24T10:08:31;8.73;;;4.10;;
73084;SDS011;62974;49.460;10.892;2023-07-24T10:10:59;10.50;;;4.78;;
73084;SDS011;62974;49.460;10.892;2023-07-24T10:13:27;7.22;;;3.42;;
73084;SDS011;62974;49.460;10.892;2023-07-24T10:15:57;8.50;;;4.10;;
73084;SDS011;62974;49.460;10.892;2023-07-24T10:18:25;10.38;;;4.30;;
73084;SDS011;62974;49.460;10.892;2023-07-24T10:21:05;9.27;;;4.00;;
73084;SDS011;62974;49.460;10.892;2023-07-24T10:23:34;8.95;;;4.22;;
73084;SDS011;62974;49.460;10.892;2023-07-24T10:26:02;9.48;;;4.78;;
73084;SDS011;62974;49.460;10.892;2023-07-24T10:28:31;8.30;;;4.10;;
73084;SDS011;62974;49.460;10.892;2023-07-24T10:31:01;8.55;;;4.00;;
73084;SDS011;62974;49.460;10.892;2023-07-24T10:33:30;8.65;;;3.83;;
73084;SDS011;62974;49.460;10.892;2023-07-24T10:36:04;11.60;;;4.57;;
73084;SDS011;62974;49.460;10.892;2023-07-24T10:38:35;8.20;;;4.00;;
73084;SDS011;62974;49.460;10.892;2023-07-24T10:41:07;9.85;;;4.60;;
73084;SDS011;62974;49.460;10.892;2023-07-24T10:43:40;9.13;;;4.38;;
73084;SDS011;62974;49.460;10.892;2023-07-24T10:46:15;9.13;;;4.38;;
73084;SDS011;62974;49.460;10.892;2023-07-24T10:48:46;10.27;;;4.45;;
73084;SDS011;62974;49.460;10.892;2023-07-24T10:51:15;11.13;;;4.53;;
73084;SDS011;62974;49.460;10.892;2023-07-24T10:53:44;8.48;;;3.85;;
73084;SDS011;62974;49.460;10.892;2023-07-24T10:56:13;8.32;;;4.10;;
73084;SDS011;62974;49.460;10.892;2023-07-24T10:58:41;9.13;;;4.13;;
73084;SDS011;62974;49.460;10.892;2023-07-24T11:01:09;8.68;;;4.18;;
73084;SDS011;62974;49.460;10.892;2023-07-24T11:03:39;6.75;;;4.10;;
73084;SDS011;62974;49.460;10.892;2023-07-24T11:06:11;8.32;;;4.07;;
73084;SDS011;62974;49.460;10.892;2023-07-24T11:08:40;11.13;;;4.40;;
73084;SDS011;62974;49.460;10.892;2023-07-24T11:11:08;8.38;;;4.30;;
73084;SDS011;62974;49.460;10.892;2023-07-24T11:13:37;7.43;;;3.92;;
73084;SDS011;62974;49.460;10.892;2023-07-24T11:16:06;11.38;;;3.92;;
73084;SDS011;62974;49.460;10.892;2023-07-24T11:18:45;10.25;;;4.63;;
73084;SDS011;62974;49.460;10.892;2023-07-24T11:21:20;8.50;;;4.28;;
73084;SDS011;62974;49.460;10.892;2023-07-24T11:23:50;10.93;;;4.70;;
73084;SDS011;62974;49.460;10.892;2023-07-24T11:26:22;8.73;;;3.83;;
73084;SDS011;62974;49.460;10.892;2023-07-24T11:28:50;8.77;;;4.55;;
73084;SDS011;62974;49.460;10.892;2023-07-24T11:31:19;11.13;;;4.57;;
73084;SDS011;62974;49.460;10.892;2023-07-24T11:33:49;9.95;;;4.05;;
73084;SDS011;62974;49.460;10.892;2023-07-24T11:36:17;11.48;;;5.03;;
73084;SDS011;62974;49.460;10.892;2023-07-24T11:38:46;9.75;;;4.70;;
73084;SDS011;62974;49.460;10.892;2023-07-24T11:41:14;9.82;;;4.55;;
73084;SDS011;62974;49.460;10.892;2023-07-24T11:43:47;11.23;;;5.53;;
73084;SDS011;62974;49.460;10.892;2023-07-24T11:46:22;8.27;;;4.57;;
73084;SDS011;62974;49.460;10.892;2023-07-24T11:48:55;8.35;;;4.18;;
73084;SDS011;62974;49.460;10.892;2023-07-24T11:51:24;10.00;;;4.60;;
73084;SDS011;62974;49.460;10.892;2023-07-24T11:54:03;9.18;;;3.97;;
73084;SDS011;62974;49.460;10.892;2023-07-24T11:56:32;12.70;;;4.80;;
73084;SDS011;62974;49.460;10.892;2023-07-24T11:59:08;9.43;;;4.35;;
73084;SDS011;62974;49.460;10.892;2023-07-24T12:01:36;8.52;;;4.72;;
73084;SDS011;62974;49.460;10.892;2023-07-24T12:04:05;10.80;;;4.63;;
73084;SDS011;62974;49.460;10.892;2023-07-24T12:06:33;10.07;;;4.25;;
73084;SDS011;62974;49.460;10.892;2023-07-24T12:09:02;9.20;;;3.92;;
73084;SDS011;62974;49.460;10.892;2023-07-24T12:11:31;7.57;;;3.45;;
73084;SDS011;62974;49.460;10.892;2023-07-24T12:13:59;7.05;;;3.75;;
73084;SDS011;62974;49.460;10.892;2023-07-24T12:16:27;9.40;;;4.35;;
73084;SDS011;62974;49.460;10.892;2023-07-24T12:18:55;6.15;;;3.13;;
73084;SDS011;62974;49.460;10.892;2023-07-24T12:21:24;7.75;;;3.72;;
73084;SDS011;62974;49.460;10.892;2023-07-24T12:23:52;5.78;;;3.03;;
73084;SDS011;62974;49.460;10.892;2023-07-24T12:26:19;6.53;;;3.22;;
73084;SDS011;62974;49.460;10.892;2023-07-24T12:28:48;6.72;;;3.10;;
73084;SDS011;62974;49.460;10.892;2023-07-24T12:31:15;5.90;;;3.20;;
73084;SDS011;62974;49.460;10.892;2023-07-24T12:33:44;4.45;;;2.05;;
73084;SDS011;62974;49.460;10.892;2023-07-24T12:36:12;5.38;;;2.55;;
73084;SDS011;62974;49.460;10.892;2023-07-24T12:38:42;4.80;;;2.58;;
73084;SDS011;62974;49.460;10.892;2023-07-24T12:41:09;6.78;;;3.15;;
73084;SDS011;62974;49.460;10.892;2023-07-24T12:43:37;6.13;;;2.83;;
73084;SDS011;62974;49.460;10.892;2023-07-24T12:46:04;4.97;;;2.58;;
73084;SDS011;62974;49.460;10.892;2023-07-24T12:48:32;3.85;;;1.77;;
73084;SDS011;62974;49.460;10.892;2023-07-24T12:51:02;5.10;;;2.40;;
73084;SDS011;62974;49.460;10.892;2023-07-24T12:53:30;7.75;;;2.83;;
73084;SDS011;62974;49.460;10.892;2023-07-24T12:56:15;7.00;;;2.95;;
73084;SDS011;62974;49.460;10.892;2023-07-24T12:58:42;6.47;;;3.08;;
73084;SDS011;62974;49.460;10.892;2023-07-24T13:01:10;5.85;;;2.83;;
73084;SDS011;62974;49.460;10.892;2023-07-24T13:03:40;4.53;;;2.50;;
73084;SDS011;62974;49.460;10.892;2023-07-24T13:06:11;5.28;;;3.10;;
73084;SDS011;62974;49.460;10.892;2023-07-24T13:08:38;6.22;;;3.20;;
73084;SDS011;62974;49.460;10.892;2023-07-24T13:11:06;5.32;;;2.45;;
73084;SDS011;62974;49.460;10.892;2023-07-24T13:13:35;5.13;;;2.58;;
73084;SDS011;62974;49.460;10.892;2023-07-24T13:16:03;7.32;;;3.85;;
73084;SDS011;62974;49.460;10.892;2023-07-24T13:18:31;6.53;;;2.90;;
73084;SDS011;62974;49.460;10.892;2023-07-24T13:21:00;7.10;;;3.15;;
73084;SDS011;62974;49.460;10.892;2023-07-24T13:23:27;6.13;;;2.78;;
73084;SDS011;62974;49.460;10.892;2023-07-24T13:25:55;5.57;;;2.88;;
73084;SDS011;62974;49.460;10.892;2023-07-24T13:28:22;5.43;;;2.35;;
73084;SDS011;62974;49.460;10.892;2023-07-24T13:30:51;4.18;;;2.35;;
73084;SDS011;62974;49.460;10.892;2023-07-24T13:33:19;7.22;;;3.33;;
73084;SDS011;62974;49.460;10.892;2023-07-24T13:35:48;5.10;;;3.05;;
73084;SDS011;62974;49.460;10.892;2023-07-24T13:38:16;6.45;;;2.28;;
73084;SDS011;62974;49.460;10.892;2023-07-24T13:40:47;6.18;;;3.13;;
73084;SDS011;62974;49.460;10.892;2023-07-24T13:43:15;3.55;;;1.65;;
73084;SDS011;62974;49.460;10.892;2023-07-24T13:48:11;5.63;;;3.00;;
73084;SDS011;62974;49.460;10.892;2023-07-24T13:50:39;6.43;;;2.72;;
73084;SDS011;62974;49.460;10.892;2023-07-24T13:53:06;4.00;;;1.98;;
73084;SDS011;62974;49.460;10.892;2023-07-24T13:55:34;4.63;;;2.25;;
73084;SDS011;62974;49.460;10.892;2023-07-24T13:58:01;4.60;;;2.03;;
73084;SDS011;62974;49.460;10.892;2023-07-24T14:00:29;4.10;;;2.10;;
73084;SDS011;62974;49.460;10.892;2023-07-24T14:02:57;5.43;;;3.05;;
73084;SDS011;62974;49.460;10.892;2023-07-24T14:05:26;6.00;;;2.40;;
73084;SDS011;62974;49.460;10.892;2023-07-24T14:07:54;4.90;;;2.50;;
73084;SDS011;62974;49.460;10.892;2023-07-24T14:10:22;4.53;;;2.22;;
73084;SDS011;62974;49.460;10.892;2023-07-24T14:12:50;4.40;;;2.00;;
73084;SDS011;62974;49.460;10.892;2023-07-24T14:15:17;4.90;;;2.13;;
73084;SDS011;62974;49.460;10.892;2023-07-24T14:17:45;3.88;;;1.90;;
73084;SDS011;62974;49.460;10.892;2023-07-24T14:20:12;6.95;;;2.22;;
73084;SDS011;62974;49.460;10.892;2023-07-24T14:22:41;6.38;;;2.60;;
73084;SDS011;62974;49.460;10.892;2023-07-24T14:25:09;5.60;;;2.08;;
73084;SDS011;62974;49.460;10.892;2023-07-24T14:27:36;4.63;;;2.22;;
73084;SDS011;62974;49.460;10.892;2023-07-24T14:30:04;5.07;;;2.50;;
73084;SDS011;62974;49.460;10.892;2023-07-24T14:32:33;6.05;;;2.90;;
73084;SDS011;62974;49.460;10.892;2023-07-24T14:35:00;3.95;;;2.28;;
73084;SDS011;62974;49.460;10.892;2023-07-24T14:37:28;10.80;;;3.22;;
73084;SDS011;62974;49.460;10.892;2023-07-24T14:39:58;5.78;;;2.80;;
73084;SDS011;62974;49.460;10.892;2023-07-24T14:42:26;5.22;;;2.35;;
73084;SDS011;62974;49.460;10.892;2023-07-24T14:44:53;4.97;;;2.40;;
73084;SDS011;62974;49.460;10.892;2023-07-24T14:47:21;4.60;;;2.20;;
73084;SDS011;62974;49.460;10.892;2023-07-24T14:49:48;4.00;;;1.80;;
73084;SDS011;62974;49.460;10.892;2023-07-24T14:52:16;6.03;;;2.17;;
73084;SDS011;62974;49.460;10.892;2023-07-24T14:54:43;4.40;;;1.65;;